Time;durP1;ratioP1;P1;durP2;ratioP2;P2;SDS_P1;SDS_P2;PMS_P1;PMS_P2;Temp;Humidity;BMP_temperature;BMP_pressure;BME280_temperature;BME280_humidity;BME280_pressure;Samples;Min_cycle;Max_cycle;Signal;HPM_P1;HPM_P2
2021/12/28 00:00:22;;;;;;;0.70;0.70;;;4.60;99.90;;;;;;5114071;28;20043;-85
2021/12/28 00:02:49;;;;;;;1.10;1.05;;;4.60;99.90;;;;;;5114102;28;20040;-84
2021/12/28 00:05:15;;;;;;;;;;;4.60;99.90;;;;;;5114371;28;20048;-85
2021/12/28 00:07:41;;;;;;;1.42;1.33;;;4.70;99.90;;;;;;5113915;28;19920;-84
2021/12/28 00:10:09;;;;;;;2.05;1.95;;;4.70;99.90;;;;;;5113821;28;20101;-84
2021/12/28 00:12:37;;;;;;;2.97;1.23;;;4.70;99.90;;;;;;5113876;28;20042;-84
2021/12/28 00:15:18;;;;;;;9.60;2.28;;;4.80;99.90;;;;;;5113846;28;20124;-84
2021/12/28 00:17:59;;;;;;;1.40;1.17;;;4.70;99.90;;;;;;5113922;28;20043;-84
2021/12/28 00:20:47;;;;;;;2.25;0.82;;;4.80;99.90;;;;;;5114315;28;20043;-84
2021/12/28 00:23:18;;;;;;;4.20;1.38;;;4.80;99.90;;;;;;5114465;28;20043;-84
2021/12/28 00:25:50;;;;;;;0.60;0.60;;;4.80;99.90;;;;;;5113821;28;20048;-85
2021/12/28 00:28:16;;;;;;;0.88;0.88;;;4.80;99.90;;;;;;5113931;28;20130;-84
2021/12/28 00:30:42;;;;;;;1.90;1.00;;;4.80;99.90;;;;;;5112576;28;20048;-84
2021/12/28 00:33:08;;;;;;;2.80;2.63;;;4.80;99.90;;;;;;5113710;28;20304;-85
2021/12/28 00:35:38;;;;;;;0.70;0.70;;;4.80;99.90;;;;;;5112904;28;20483;-84
2021/12/28 00:38:04;;;;;;;1.15;1.08;;;4.80;99.90;;;;;;5113754;28;20043;-84
2021/12/28 00:40:30;;;;;;;3.08;2.80;;;4.90;99.90;;;;;;5113475;28;20083;-85
2021/12/28 00:42:56;;;;;;;1.95;1.85;;;4.90;99.90;;;;;;5112348;28;20090;-84
2021/12/28 00:45:22;;;;;;;1.17;1.08;;;5.00;99.90;;;;;;5146857;27;20071;-83
2021/12/28 00:47:47;;;;;;;1.90;1.30;;;5.00;99.90;;;;;;5113581;28;20043;-84
2021/12/28 00:50:15;;;;;;;1.35;1.25;;;5.10;99.90;;;;;;5112678;28;20284;-85
2021/12/28 00:52:42;;;;;;;1.00;1.00;;;5.10;99.90;;;;;;5116131;28;20065;-84
2021/12/28 00:55:09;;;;;;;0.90;0.88;;;5.10;99.90;;;;;;5117025;28;20050;-85
2021/12/28 00:57:35;;;;;;;0.93;0.80;;;5.20;99.90;;;;;;5117115;28;20048;-83
2021/12/28 01:00:02;;;;;;;3.35;3.05;;;5.10;99.90;;;;;;5117193;28;20164;-84
2021/12/28 01:02:28;;;;;;;1.90;1.77;;;5.20;99.90;;;;;;5115773;28;20054;-85
2021/12/28 01:04:54;;;;;;;1.40;1.15;;;5.20;99.90;;;;;;5150926;27;20476;-85
2021/12/28 01:07:19;;;;;;;2.75;2.30;;;5.20;99.90;;;;;;5150650;27;20172;-84
2021/12/28 01:09:45;;;;;;;2.58;2.38;;;5.20;99.90;;;;;;5116954;28;20127;-83
2021/12/28 01:12:11;;;;;;;0.70;0.70;;;5.20;99.90;;;;;;5116699;28;20039;-84
2021/12/28 01:14:38;;;;;;;1.53;1.43;;;5.20;99.90;;;;;;5117293;28;20055;-84
2021/12/28 01:17:05;;;;;;;0.90;0.80;;;5.20;99.90;;;;;;5116756;28;20048;-84
2021/12/28 01:19:30;;;;;;;1.98;1.85;;;5.20;99.90;;;;;;5115504;28;20050;-84
2021/12/28 01:21:56;;;;;;;1.58;1.48;;;5.30;99.90;;;;;;5117440;28;20395;-83
2021/12/28 01:24:22;;;;;;;1.17;1.08;;;5.30;99.90;;;;;;5116470;28;20044;-82
2021/12/28 01:26:48;;;;;;;1.40;1.30;;;5.30;99.90;;;;;;5116249;28;20079;-84
2021/12/28 01:29:14;;;;;;;0.75;0.70;;;5.30;99.90;;;;;;5116555;28;20105;-84
2021/12/28 01:31:40;;;;;;;1.30;1.20;;;5.30;99.90;;;;;;5116870;28;20051;-84
2021/12/28 01:34:08;;;;;;;0.70;0.70;;;5.30;99.90;;;;;;5116530;28;20044;-83
2021/12/28 01:36:34;;;;;;;0.90;0.90;;;5.00;99.90;;;;;;5115224;28;20044;-83
2021/12/28 01:39:00;;;;;;;0.82;0.82;;;5.30;99.90;;;;;;5116206;28;20050;-84
2021/12/28 01:41:25;;;;;;;0.75;0.75;;;5.30;99.90;;;;;;5116252;28;20048;-83
2021/12/28 01:43:59;;;;;;;1.67;1.58;;;5.30;99.90;;;;;;5149785;27;20042;-83
2021/12/28 01:46:25;;;;;;;1.40;1.30;;;5.30;99.90;;;;;;5116144;27;20377;-83
2021/12/28 01:48:51;;;;;;;3.40;1.83;;;5.40;99.90;;;;;;5116172;28;20035;-83
2021/12/28 01:51:20;;;;;;;1.45;1.35;;;5.40;99.90;;;;;;5116086;28;20058;-84
2021/12/28 01:53:48;;;;;;;0.82;0.82;;;5.50;99.90;;;;;;5116364;28;20051;-84
2021/12/28 01:56:18;;;;;;;0.80;0.80;;;5.50;99.90;;;;;;5116552;28;20047;-84
2021/12/28 01:58:44;;;;;;;1.00;0.98;;;5.40;99.90;;;;;;5115998;28;20134;-83
2021/12/28 02:01:10;;;;;;;1.00;1.00;;;5.50;99.90;;;;;;5115859;28;20040;-83
2021/12/28 02:03:38;;;;;;;0.83;0.83;;;5.50;99.90;;;;;;5114947;28;20112;-84
2021/12/28 02:06:05;;;;;;;2.05;1.88;;;5.50;99.90;;;;;;5115845;28;20154;-83
2021/12/28 02:08:30;;;;;;;1.67;1.55;;;5.60;99.90;;;;;;5115752;28;20047;-83
2021/12/28 02:10:57;;;;;;;3.08;2.22;;;5.60;99.90;;;;;;5115502;28;20489;-83
2021/12/28 02:13:24;;;;;;;1.85;1.75;;;5.60;99.90;;;;;;5116450;28;20471;-83
2021/12/28 02:15:50;;;;;;;3.00;1.90;;;5.50;99.90;;;;;;5115477;28;20541;-83
2021/12/28 02:18:18;;;;;;;1.80;1.70;;;5.40;99.90;;;;;;5115758;28;20047;-83
2021/12/28 02:20:45;;;;;;;1.48;1.20;;;5.50;99.90;;;;;;5115817;28;20143;-84
2021/12/28 02:23:11;;;;;;;1.58;1.48;;;5.50;99.90;;;;;;5118666;28;20039;-84
2021/12/28 02:25:38;;;;;;;2.63;1.60;;;5.50;99.90;;;;;;5122264;28;20117;-84
2021/12/28 02:28:06;;;;;;;1.17;1.08;;;5.50;99.90;;;;;;5115540;28;20051;-83
2021/12/28 02:30:34;;;;;;;1.23;1.13;;;5.50;99.90;;;;;;5115707;28;20044;-83
2021/12/28 02:33:00;;;;;;;1.73;1.48;;;5.50;99.90;;;;;;5115507;28;20085;-83
2021/12/28 02:35:26;;;;;;;2.25;2.05;;;5.50;99.90;;;;;;5115639;27;20043;-83
2021/12/28 02:37:53;;;;;;;0.70;0.70;;;5.50;99.90;;;;;;5115279;28;20051;-83
2021/12/28 02:40:23;;;;;;;2.03;1.90;;;5.50;99.90;;;;;;5114126;28;20488;-83
2021/12/28 02:42:50;;;;;;;1.60;1.50;;;5.50;99.90;;;;;;5115314;28;20442;-84
2021/12/28 02:45:28;;;;;;;1.20;1.15;;;5.60;99.90;;;;;;5115360;28;20118;-84
2021/12/28 02:47:54;;;;;;;0.77;0.77;;;5.60;99.90;;;;;;5115233;28;20376;-83
2021/12/28 02:50:24;;;;;;;1.50;1.40;;;5.60;99.90;;;;;;5114990;28;20134;-84
2021/12/28 02:52:50;;;;;;;3.80;1.20;;;5.60;99.90;;;;;;5113752;28;20059;-84
2021/12/28 02:55:20;;;;;;;2.25;2.05;;;5.60;99.90;;;;;;5114913;28;20480;-83
2021/12/28 02:57:58;;;;;;;3.05;1.80;;;5.60;99.90;;;;;;5114911;28;20429;-83
2021/12/28 03:00:42;;;;;;;2.35;2.15;;;5.60;99.90;;;;;;5114747;28;20471;-84
2021/12/28 03:03:13;;;;;;;1.73;1.15;;;5.60;99.90;;;;;;5113822;28;20050;-83
2021/12/28 03:05:42;;;;;;;0.85;0.85;;;5.50;99.90;;;;;;5114681;28;20130;-83
2021/12/28 03:08:09;;;;;;;2.15;1.63;;;5.60;99.90;;;;;;5114656;28;20075;-83
2021/12/28 03:10:36;;;;;;;5.07;2.80;;;5.60;99.90;;;;;;5114460;28;20138;-83
2021/12/28 03:13:03;;;;;;;1.48;1.17;;;5.60;99.90;;;;;;5113315;28;20403;-83
2021/12/28 03:15:29;;;;;;;1.33;1.23;;;5.70;99.90;;;;;;5114259;28;20105;-83
2021/12/28 03:17:54;;;;;;;0.80;0.80;;;6.00;99.90;;;;;;5114919;28;20039;-83
2021/12/28 03:20:20;;;;;;;3.22;2.70;;;5.80;99.90;;;;;;5114910;28;20044;-84
2021/12/28 03:22:45;;;;;;;1.58;1.25;;;5.80;99.90;;;;;;5115408;28;20386;-83
2021/12/28 03:25:12;;;;;;;1.63;1.52;;;5.80;99.90;;;;;;5115303;28;20127;-83
2021/12/28 03:27:38;;;;;;;1.52;1.40;;;5.80;99.90;;;;;;5114818;28;20483;-84
2021/12/28 03:30:08;;;;;;;4.68;2.60;;;5.80;99.90;;;;;;5114323;28;20047;-83
2021/12/28 03:32:33;;;;;;;1.40;1.15;;;5.70;99.90;;;;;;5113283;28;20043;-83
2021/12/28 03:34:59;;;;;;;2.17;1.42;;;5.70;99.90;;;;;;5114278;28;20404;-83
2021/12/28 03:37:26;;;;;;;2.00;1.75;;;5.70;99.90;;;;;;5114263;28;20051;-83
2021/12/28 03:39:51;;;;;;;1.83;1.70;;;5.70;99.90;;;;;;5114146;28;20108;-83
2021/12/28 03:42:17;;;;;;;1.65;1.35;;;5.70;99.90;;;;;;5112942;28;20075;-83
2021/12/28 03:44:42;;;;;;;2.45;2.25;;;5.70;99.90;;;;;;5114168;28;20054;-83
2021/12/28 03:47:09;;;;;;;0.70;0.70;;;5.60;99.90;;;;;;5114211;28;20130;-82
2021/12/28 03:49:34;;;;;;;0.68;0.68;;;5.60;99.90;;;;;;5114331;28;20522;-83
2021/12/28 03:52:01;;;;;;;2.17;1.55;;;5.50;99.90;;;;;;5114182;28;20091;-83
2021/12/28 03:54:27;;;;;;;2.55;1.95;;;5.80;99.90;;;;;;5114133;28;20061;-84
2021/12/28 03:56:53;;;;;;;0.88;0.88;;;5.40;99.90;;;;;;5114093;28;20546;-83
2021/12/28 03:59:19;;;;;;;2.75;1.27;;;5.40;99.90;;;;;;5114035;28;20051;-84
2021/12/28 04:01:44;;;;;;;8.88;2.17;;;5.30;99.90;;;;;;5114437;28;20118;-83
2021/12/28 04:04:10;;;;;;;0.77;0.77;;;5.30;99.90;;;;;;5113229;28;20482;-82
2021/12/28 04:06:36;;;;;;;1.70;1.60;;;5.30;99.90;;;;;;5113980;28;20126;-82
2021/12/28 04:09:03;;;;;;;1.20;1.10;;;5.20;99.90;;;;;;5113468;28;20039;-82
2021/12/28 04:11:29;;;;;;;3.17;2.47;;;5.20;99.90;;;;;;5113627;28;20044;-82
2021/12/28 04:13:59;;;;;;;2.05;1.95;;;5.20;99.90;;;;;;5114370;28;20391;-83
2021/12/28 04:16:25;;;;;;;3.83;1.48;;;5.20;99.90;;;;;;5112937;28;20052;-82
2021/12/28 04:18:52;;;;;;;1.02;0.90;;;5.00;99.90;;;;;;5113530;28;20046;-82
2021/12/28 04:21:18;;;;;;;1.05;1.02;;;5.10;99.90;;;;;;5113750;28;20047;-82
2021/12/28 04:23:43;;;;;;;1.85;1.75;;;5.10;99.90;;;;;;5113766;28;20065;-82
2021/12/28 04:26:09;;;;;;;5.30;2.30;;;5.00;99.90;;;;;;5113903;28;20040;-82
2021/12/28 04:28:35;;;;;;;0.90;0.90;;;5.00;99.90;;;;;;5117700;28;20123;-82
2021/12/28 04:31:01;;;;;;;1.70;1.60;;;5.00;99.90;;;;;;5118187;28;20498;-82
2021/12/28 04:33:26;;;;;;;1.40;0.73;;;5.00;99.90;;;;;;5117693;28;20130;-82
2021/12/28 04:35:52;;;;;;;0.75;0.75;;;5.00;99.90;;;;;;5117576;28;20046;-82
2021/12/28 04:38:18;;;;;;;1.67;1.55;;;5.00;99.90;;;;;;5117577;28;20051;-82
2021/12/28 04:40:43;;;;;;;0.70;0.70;;;4.90;99.90;;;;;;5117420;28;20050;-82
2021/12/28 04:43:11;;;;;;;0.60;0.60;;;5.00;99.90;;;;;;5117399;28;20050;-82
2021/12/28 04:45:37;;;;;;;0.70;0.70;;;4.90;99.90;;;;;;5117399;28;20051;-82
2021/12/28 04:48:04;;;;;;;0.70;0.70;;;4.90;99.90;;;;;;5117792;28;20047;-82
2021/12/28 04:50:37;;;;;;;1.38;1.20;;;4.90;99.90;;;;;;5117819;28;20039;-82
2021/12/28 04:53:08;;;;;;;1.35;1.25;;;4.90;99.90;;;;;;5117058;28;20055;-82
2021/12/28 04:55:34;;;;;;;1.35;1.20;;;4.90;99.90;;;;;;5117313;28;20054;-82
2021/12/28 04:57:59;;;;;;;0.70;0.70;;;4.90;99.90;;;;;;5117160;28;20040;-82
2021/12/28 05:00:25;;;;;;;0.90;0.90;;;5.00;99.90;;;;;;5117079;28;20051;-82
2021/12/28 05:02:50;;;;;;;1.20;1.05;;;4.90;99.90;;;;;;5115903;28;20130;-82
2021/12/28 05:05:16;;;;;;;0.50;0.50;;;4.90;99.90;;;;;;5116989;28;20047;-82
2021/12/28 05:07:42;;;;;;;1.40;1.23;;;4.90;99.90;;;;;;5117077;28;20047;-82
2021/12/28 05:10:09;;;;;;;0.82;0.82;;;4.90;99.90;;;;;;5116996;28;20043;-82
2021/12/28 05:12:35;;;;;;;0.93;0.93;;;4.90;99.90;;;;;;5116838;28;20126;-82
2021/12/28 05:15:01;;;;;;;2.53;2.30;;;4.90;99.90;;;;;;5117095;28;20517;-81
2021/12/28 05:17:27;;;;;;;1.37;1.27;;;4.90;99.90;;;;;;5116830;28;20045;-82
2021/12/28 05:19:53;;;;;;;2.15;1.48;;;4.90;99.90;;;;;;5116747;28;20386;-82
2021/12/28 05:22:19;;;;;;;8.95;1.40;;;4.90;99.90;;;;;;5115488;28;20039;-81
2021/12/28 05:24:45;;;;;;;2.70;1.13;;;4.90;99.90;;;;;;5116647;28;20039;-81
2021/12/28 05:27:10;;;;;;;1.95;1.67;;;5.00;99.90;;;;;;5116546;28;20066;-81
2021/12/28 05:29:36;;;;;;;0.85;0.73;;;5.00;99.90;;;;;;5116493;28;20044;-82
2021/12/28 05:32:02;;;;;;;0.70;0.70;;;5.00;99.90;;;;;;5116902;28;20040;-82
2021/12/28 05:34:28;;;;;;;1.53;1.43;;;5.00;99.90;;;;;;5116272;28;20043;-82
2021/12/28 05:36:53;;;;;;;1.10;1.05;;;4.90;99.90;;;;;;5116423;28;20039;-82
2021/12/28 05:39:19;;;;;;;2.15;2.05;;;5.00;99.90;;;;;;5116096;28;20491;-82
2021/12/28 05:41:45;;;;;;;1.60;1.40;;;5.00;99.90;;;;;;5116164;28;20047;-82
2021/12/28 05:44:11;;;;;;;3.47;2.42;;;5.00;99.90;;;;;;5114798;28;20039;-82
2021/12/28 05:46:36;;;;;;;0.80;0.80;;;5.00;99.90;;;;;;5116281;28;20075;-82
2021/12/28 05:49:03;;;;;;;0.60;0.60;;;5.00;99.90;;;;;;5116269;28;20047;-82
2021/12/28 05:51:28;;;;;;;0.98;0.95;;;5.00;99.90;;;;;;5115895;28;20062;-82
2021/12/28 05:53:54;;;;;;;1.35;1.25;;;5.00;99.90;;;;;;5116102;28;20484;-82
2021/12/28 05:56:20;;;;;;;0.80;0.70;;;5.00;99.90;;;;;;5115990;28;20035;-82
2021/12/28 05:58:46;;;;;;;0.73;0.73;;;5.10;99.90;;;;;;5115941;28;20058;-82
2021/12/28 06:01:11;;;;;;;1.15;1.05;;;5.10;99.90;;;;;;5149440;27;20040;-82
2021/12/28 06:03:37;;;;;;;0.70;0.70;;;5.10;99.90;;;;;;5116568;28;20039;-82
2021/12/28 06:06:02;;;;;;;2.58;1.85;;;5.10;99.90;;;;;;5115891;28;20047;-81
2021/12/28 06:08:28;;;;;;;1.02;0.93;;;5.10;99.90;;;;;;5115646;28;20123;-82
2021/12/28 06:10:53;;;;;;;3.60;2.05;;;5.10;99.90;;;;;;5115721;28;20105;-82
2021/12/28 06:13:19;;;;;;;0.95;0.95;;;5.10;99.90;;;;;;5115678;28;20094;-82
2021/12/28 06:15:45;;;;;;;3.47;1.92;;;5.10;99.90;;;;;;5116057;28;20047;-82
2021/12/28 06:18:11;;;;;;;1.40;1.30;;;5.90;99.90;;;;;;5115624;28;20043;-81
2021/12/28 06:20:36;;;;;;;0.73;0.73;;;5.10;99.90;;;;;;5115508;28;20479;-82
2021/12/28 06:23:02;;;;;;;5.40;1.92;;;5.10;99.90;;;;;;5115639;28;20246;-84
2021/12/28 06:25:28;;;;;;;0.80;0.80;;;5.10;99.90;;;;;;5115282;28;20411;-81
2021/12/28 06:27:54;;;;;;;1.48;1.38;;;5.10;99.90;;;;;;5114841;28;20126;-80
2021/12/28 06:30:20;;;;;;;2.08;1.88;;;5.10;99.90;;;;;;5114588;28;20040;-80
2021/12/28 06:32:47;;;;;;;0.95;0.95;;;5.10;99.90;;;;;;5094700;28;20093;-80
2021/12/28 06:35:12;;;;;;;;;;;5.00;99.90;;;;;;5095340;28;20434;-79
2021/12/28 06:37:38;;;;;;;2.15;2.05;;;5.00;99.90;;;;;;5094856;28;19920;-78
2021/12/28 06:40:05;;;;;;;0.70;0.70;;;5.00;99.90;;;;;;5094803;28;20055;-81
2021/12/28 06:42:31;;;;;;;0.60;0.60;;;5.00;99.90;;;;;;5094631;28;20096;-81
2021/12/28 06:44:57;;;;;;;1.25;1.15;;;5.00;99.90;;;;;;5094819;28;20426;-82
2021/12/28 06:47:23;;;;;;;0.60;0.60;;;5.00;99.90;;;;;;5127806;27;20044;-81
2021/12/28 06:49:48;;;;;;;0.80;0.80;;;5.00;99.90;;;;;;5093743;28;20044;-82
2021/12/28 06:52:14;;;;;;;0.70;0.70;;;5.20;99.90;;;;;;5127727;27;20067;-82
2021/12/28 06:54:40;;;;;;;1.17;1.08;;;5.00;99.90;;;;;;5094473;28;20059;-81
2021/12/28 06:57:08;;;;;;;0.88;0.88;;;5.00;99.90;;;;;;5093547;28;20048;-83
2021/12/28 06:59:37;;;;;;;2.05;1.92;;;5.00;99.90;;;;;;5094712;28;20395;-79
2021/12/28 07:02:04;;;;;;;1.77;1.65;;;5.00;99.90;;;;;;5094407;28;20036;-82
2021/12/28 07:04:29;;;;;;;1.23;1.15;;;5.00;99.90;;;;;;5094344;28;20044;-82
2021/12/28 07:06:55;;;;;;;0.70;0.70;;;5.00;99.90;;;;;;5096108;28;20126;-80
2021/12/28 07:09:20;;;;;;;0.98;0.82;;;5.00;99.90;;;;;;5094410;28;20399;-81
2021/12/28 07:11:46;;;;;;;2.28;1.35;;;5.00;99.90;;;;;;5094237;28;20077;-81
2021/12/28 07:14:12;;;;;;;0.75;0.75;;;5.00;99.90;;;;;;5093025;28;20040;-81
2021/12/28 07:16:37;;;;;;;0.93;0.70;;;5.10;99.90;;;;;;5094219;28;20047;-82
2021/12/28 07:19:03;;;;;;;0.95;0.95;;;5.10;99.90;;;;;;5094131;28;20073;-82
2021/12/28 07:21:29;;;;;;;1.30;1.20;;;5.10;99.90;;;;;;5093977;28;20063;-79
2021/12/28 07:23:54;;;;;;;0.70;0.70;;;5.10;99.90;;;;;;5094218;28;20079;-79
2021/12/28 07:26:20;;;;;;;1.75;1.30;;;5.10;99.90;;;;;;5094032;28;20051;-78
2021/12/28 07:28:46;;;;;;;0.70;0.70;;;5.10;99.90;;;;;;5092869;28;20043;-80
2021/12/28 07:31:11;;;;;;;4.18;1.95;;;5.10;99.90;;;;;;5094427;28;20047;-79
2021/12/28 07:33:37;;;;;;;1.75;1.38;;;5.10;99.90;;;;;;5093967;28;20384;-80
2021/12/28 07:36:03;;;;;;;0.60;0.60;;;5.10;99.90;;;;;;5093935;28;20036;-82
2021/12/28 07:38:28;;;;;;;1.67;1.58;;;5.10;99.90;;;;;;5094028;28;20051;-80
2021/12/28 07:40:54;;;;;;;0.60;0.60;;;5.10;99.90;;;;;;5093901;28;20043;-80
2021/12/28 07:43:19;;;;;;;0.60;0.60;;;5.10;99.90;;;;;;5093728;28;20533;-79
2021/12/28 07:45:46;;;;;;;0.68;0.68;;;5.10;99.90;;;;;;5093738;28;20039;-81
2021/12/28 07:48:12;;;;;;;1.90;1.70;;;5.10;99.90;;;;;;5093739;28;20040;-82
2021/12/28 07:50:37;;;;;;;1.50;1.35;;;5.10;99.90;;;;;;5093835;28;20105;-79
2021/12/28 07:53:03;;;;;;;0.60;0.60;;;5.10;99.90;;;;;;5093763;28;20083;-79
2021/12/28 07:55:28;;;;;;;2.42;1.48;;;5.10;99.90;;;;;;5113762;28;20437;-78
2021/12/28 07:57:54;;;;;;;0.60;0.60;;;5.10;99.90;;;;;;5112240;28;20058;-81
2021/12/28 08:00:20;;;;;;;1.38;1.27;;;5.10;99.90;;;;;;5114515;28;20526;-79
2021/12/28 08:02:46;;;;;;;0.70;0.70;;;5.10;99.90;;;;;;5116987;28;20031;-79
2021/12/28 08:05:14;;;;;;;0.60;0.60;;;5.10;99.90;;;;;;5118255;28;20039;-79
2021/12/28 08:07:40;;;;;;;1.88;1.77;;;5.10;99.90;;;;;;5117069;28;20051;-81
2021/12/28 08:10:06;;;;;;;0.82;0.82;;;5.10;99.90;;;;;;5117098;28;20059;-78
2021/12/28 08:12:32;;;;;;;1.25;1.15;;;5.10;99.90;;;;;;5118477;28;20379;-82
2021/12/28 08:14:58;;;;;;;1.00;0.98;;;5.10;99.90;;;;;;5116902;28;20043;-81
2021/12/28 08:17:25;;;;;;;0.80;0.80;;;5.10;99.90;;;;;;5118087;28;20047;-81
2021/12/28 08:19:50;;;;;;;0.80;0.80;;;5.10;99.90;;;;;;5117882;28;20051;-80
2021/12/28 08:22:16;;;;;;;0.80;0.80;;;5.20;99.90;;;;;;5117956;28;20050;-81
2021/12/28 08:24:41;;;;;;;9.45;2.30;;;5.10;99.90;;;;;;5117788;28;20134;-80
2021/12/28 08:27:07;;;;;;;0.82;0.68;;;5.10;99.90;;;;;;5117518;28;20040;-78
2021/12/28 08:29:32;;;;;;;0.65;0.65;;;5.10;99.90;;;;;;5118469;28;20051;-82
2021/12/28 08:31:58;;;;;;;0.70;0.70;;;5.20;99.90;;;;;;5117254;28;20044;-79
2021/12/28 08:34:24;;;;;;;1.02;0.70;;;5.10;99.90;;;;;;5117669;28;20054;-83
2021/12/28 08:36:49;;;;;;;0.95;0.75;;;5.20;99.90;;;;;;5117831;28;20498;-79
2021/12/28 08:39:15;;;;;;;0.73;0.73;;;5.20;99.90;;;;;;5117818;28;20447;-80
2021/12/28 08:41:40;;;;;;;0.80;0.80;;;5.20;99.90;;;;;;5117405;28;20075;-82
2021/12/28 08:44:06;;;;;;;0.60;0.60;;;5.20;99.90;;;;;;5117523;28;20043;-79
2021/12/28 08:46:32;;;;;;;1.88;1.70;;;5.20;99.90;;;;;;5117478;28;20054;-83
2021/12/28 08:48:57;;;;;;;1.70;0.90;;;5.20;99.90;;;;;;5116512;28;20451;-82
2021/12/28 08:51:23;;;;;;;0.70;0.70;;;5.20;99.90;;;;;;5117423;28;20051;-79
2021/12/28 08:53:49;;;;;;;1.48;1.38;;;5.20;99.90;;;;;;5117643;28;20078;-81
2021/12/28 08:56:14;;;;;;;0.88;0.85;;;5.20;99.90;;;;;;5117254;28;20051;-81
2021/12/28 08:58:40;;;;;;;0.82;0.82;;;5.20;99.90;;;;;;5117017;28;20131;-80
2021/12/28 09:01:06;;;;;;;0.50;0.50;;;5.30;99.90;;;;;;5117183;28;20065;-82
2021/12/28 09:03:32;;;;;;;1.15;0.98;;;5.50;99.90;;;;;;5117211;28;20054;-82
2021/12/28 09:05:58;;;;;;;0.80;0.80;;;5.30;99.90;;;;;;5117327;28;20048;-82
2021/12/28 09:08:24;;;;;;;1.23;1.13;;;5.30;99.90;;;;;;5117072;28;20047;-78
2021/12/28 09:10:49;;;;;;;1.02;0.93;;;5.30;99.90;;;;;;5116085;28;20044;-78
2021/12/28 09:13:16;;;;;;;0.60;0.60;;;5.30;99.90;;;;;;5116080;28;20508;-79
2021/12/28 09:15:42;;;;;;;1.27;1.08;;;5.30;99.90;;;;;;5116960;28;20047;-79
2021/12/28 09:18:09;;;;;;;0.70;0.70;;;5.40;99.90;;;;;;5116707;27;20062;-77
2021/12/28 09:20:34;;;;;;;0.67;0.67;;;5.40;99.90;;;;;;5116860;27;20039;-79
2021/12/28 09:23:00;;;;;;;1.40;1.08;;;5.50;99.90;;;;;;5116565;28;20089;-79
2021/12/28 09:25:26;;;;;;;0.75;0.75;;;5.60;99.90;;;;;;5116637;28;20096;-79
2021/12/28 09:27:52;;;;;;;0.82;0.82;;;5.60;99.90;;;;;;5116598;28;20044;-79
2021/12/28 09:30:18;;;;;;;0.60;0.60;;;5.70;99.90;;;;;;5115468;28;20118;-79
2021/12/28 09:32:44;;;;;;;0.90;0.90;;;5.80;99.90;;;;;;5116540;28;20040;-79
2021/12/28 09:35:11;;;;;;;0.70;0.70;;;5.90;99.90;;;;;;5116528;28;20054;-79
2021/12/28 09:37:37;;;;;;;0.70;0.70;;;5.90;99.90;;;;;;5116453;27;20043;-79
2021/12/28 09:40:07;;;;;;;1.08;0.98;;;6.00;99.90;;;;;;5114811;28;20494;-80
2021/12/28 09:42:33;;;;;;;0.50;0.50;;;6.10;99.90;;;;;;5116199;27;20070;-79
2021/12/28 09:44:59;;;;;;;0.60;0.60;;;6.10;99.90;;;;;;5116316;28;20475;-79
2021/12/28 09:47:25;;;;;;;1.75;1.65;;;6.10;99.90;;;;;;5115454;28;20047;-80
2021/12/28 09:49:50;;;;;;;0.60;0.60;;;6.20;99.90;;;;;;5116091;28;20122;-78
2021/12/28 09:52:17;;;;;;;4.85;2.05;;;6.10;99.90;;;;;;5116041;28;20051;-79
2021/12/28 09:54:43;;;;;;;4.85;1.67;;;6.20;99.90;;;;;;5116104;28;20043;-79
2021/12/28 09:57:12;;;;;;;0.70;0.70;;;6.20;99.90;;;;;;5116307;28;20097;-80
2021/12/28 09:59:38;;;;;;;0.60;0.60;;;6.30;99.90;;;;;;5116179;28;20130;-79
2021/12/28 10:02:10;;;;;;;1.35;1.25;;;6.20;99.90;;;;;;5116209;28;20127;-79
2021/12/28 10:04:55;;;;;;;0.75;0.75;;;6.30;99.90;;;;;;5115963;28;20051;-79
2021/12/28 10:07:27;;;;;;;0.70;0.70;;;6.30;99.90;;;;;;5115879;28;20039;-79
2021/12/28 10:09:55;;;;;;;4.43;1.45;;;6.30;99.90;;;;;;5115784;28;20086;-79
2021/12/28 10:12:39;;;;;;;1.33;1.23;;;6.30;99.90;;;;;;5116437;28;20430;-79
2021/12/28 10:15:09;;;;;;;0.60;0.60;;;6.40;99.90;;;;;;5115767;28;20047;-79
2021/12/28 10:17:36;;;;;;;0.70;0.70;;;6.40;99.90;;;;;;5115775;28;20044;-79
2021/12/28 10:20:13;;;;;;;0.55;0.55;;;6.50;99.90;;;;;;5115269;27;20047;-79
2021/12/28 10:22:47;;;;;;;0.60;0.60;;;6.60;99.90;;;;;;5115928;28;20040;-79
2021/12/28 10:25:22;;;;;;;0.95;0.95;;;6.60;99.90;;;;;;5114882;28;20417;-80
2021/12/28 10:28:03;;;;;;;0.85;0.85;;;6.70;99.90;;;;;;5115525;28;20043;-79
2021/12/28 10:30:33;;;;;;;0.50;0.50;;;6.70;99.90;;;;;;5115382;28;20100;-79
2021/12/28 10:33:04;;;;;;;0.70;0.68;;;6.70;99.90;;;;;;5115432;28;20046;-80
2021/12/28 10:35:33;;;;;;;1.20;1.15;;;6.80;99.90;;;;;;5114133;28;20118;-80
2021/12/28 10:38:04;;;;;;;1.02;1.02;;;6.80;99.90;;;;;;5115292;28;20036;-85
2021/12/28 10:40:45;;;;;;;0.70;0.70;;;6.90;99.90;;;;;;5115255;28;20093;-79
2021/12/28 10:43:15;;;;;;;0.70;0.70;;;6.90;99.90;;;;;;5114415;28;20086;-79
2021/12/28 10:45:47;;;;;;;0.60;0.60;;;6.90;99.90;;;;;;5115126;28;20044;-79
2021/12/28 10:48:25;;;;;;;2.88;2.65;;;6.90;99.90;;;;;;5114996;28;20475;-80
2021/12/28 10:50:59;;;;;;;1.65;0.80;;;6.90;99.90;;;;;;5115123;28;20083;-80
2021/12/28 10:53:34;;;;;;;2.22;1.00;;;6.90;99.90;;;;;;5114493;28;20059;-80
2021/12/28 10:56:01;;;;;;;0.70;0.70;;;6.90;99.90;;;;;;5115390;28;20087;-80
2021/12/28 10:58:41;;;;;;;0.60;0.60;;;6.90;99.90;;;;;;5112674;28;20048;-79
2021/12/28 11:01:26;;;;;;;0.60;0.60;;;6.90;99.90;;;;;;5114545;28;20056;-80
2021/12/28 11:04:08;;;;;;;0.50;0.50;;;7.00;99.90;;;;;;5114568;28;20048;-79
2021/12/28 11:06:37;;;;;;;0.50;0.50;;;7.00;99.90;;;;;;5114307;28;20046;-80
2021/12/28 11:09:21;;;;;;;1.08;0.98;;;7.10;99.90;;;;;;5114407;28;20043;-80
2021/12/28 11:11:48;;;;;;;0.50;0.50;;;7.10;99.90;;;;;;5114069;28;20044;-81
2021/12/28 11:14:16;;;;;;;;;;;7.10;99.90;;;;;;5114450;28;20044;-80
2021/12/28 11:16:52;;;;;;;0.60;0.60;;;7.20;99.90;;;;;;5114407;28;19920;-80
2021/12/28 11:19:33;;;;;;;0.70;0.70;;;7.20;99.90;;;;;;5114244;28;20491;-81
2021/12/28 11:22:03;;;;;;;1.48;0.80;;;7.20;99.90;;;;;;5114328;28;20122;-81
2021/12/28 11:24:30;;;;;;;1.75;1.05;;;7.60;99.90;;;;;;5114129;28;20533;-81
2021/12/28 11:26:56;;;;;;;0.60;0.60;;;7.20;99.90;;;;;;5113738;28;20067;-81
2021/12/28 11:29:28;;;;;;;1.08;0.80;;;7.20;99.90;;;;;;5114410;28;20039;-82
2021/12/28 11:32:06;;;;;;;0.73;0.65;;;7.20;99.90;;;;;;5114220;28;20043;-80
2021/12/28 11:34:33;;;;;;;;;;;7.20;99.90;;;;;;5114928;28;20047;-81
2021/12/28 11:37:06;;;;;;;0.60;0.60;;;7.20;99.90;;;;;;5114030;28;20034;-82
2021/12/28 11:39:35;;;;;;;0.73;0.73;;;7.20;99.90;;;;;;5114250;28;20128;-84
2021/12/28 11:42:02;;;;;;;0.70;0.70;;;7.20;99.90;;;;;;5114245;28;20059;-82
2021/12/28 11:44:30;;;;;;;0.82;0.70;;;7.20;99.90;;;;;;5114884;28;20055;-83
2021/12/28 11:46:57;;;;;;;0.60;0.60;;;7.20;99.90;;;;;;5115209;28;20079;-81
2021/12/28 11:49:26;;;;;;;;;;;7.20;99.90;;;;;;5114680;28;20039;-81
2021/12/28 11:51:54;;;;;;;0.93;0.93;;;7.20;99.90;;;;;;5113926;28;19920;-83
2021/12/28 11:54:22;;;;;;;0.50;0.50;;;7.20;99.90;;;;;;5112622;28;20050;-81
2021/12/28 11:56:57;;;;;;;1.02;0.93;;;7.30;99.90;;;;;;5112856;28;20510;-82
2021/12/28 11:59:28;;;;;;;0.63;0.63;;;7.30;99.90;;;;;;5114359;28;20079;-82
2021/12/28 12:01:59;;;;;;;0.88;0.88;;;7.30;99.90;;;;;;5114056;28;20036;-84
2021/12/28 12:04:27;;;;;;;1.73;1.00;;;7.30;99.90;;;;;;5113964;28;20056;-82
2021/12/28 12:07:04;;;;;;;0.73;0.73;;;7.30;99.90;;;;;;5114078;28;20039;-85
2021/12/28 12:09:31;;;;;;;1.00;1.00;;;7.30;99.90;;;;;;5114061;28;20043;-85
2021/12/28 12:12:09;;;;;;;1.00;0.95;;;6.30;99.90;;;;;;5096312;28;20317;-83
2021/12/28 12:14:57;;;;;;;0.70;0.70;;;7.30;99.90;;;;;;5114067;28;20078;-82
2021/12/28 12:17:34;;;;;;;;;;;7.30;99.90;;;;;;5114415;28;20048;-86
2021/12/28 12:20:10;;;;;;;0.60;0.60;;;7.30;99.90;;;;;;5147263;27;20295;-86
2021/12/28 12:22:39;;;;;;;0.50;0.50;;;7.30;99.90;;;;;;5147119;27;20048;-87
2021/12/28 12:25:09;;;;;;;0.80;0.80;;;7.30;99.90;;;;;;5113554;28;20445;-84
2021/12/28 12:27:40;;;;;;;0.60;0.60;;;7.30;99.90;;;;;;5096004;28;20043;-83
2021/12/28 12:30:24;;;;;;;0.90;0.80;;;7.40;99.90;;;;;;5147146;27;20047;-84
2021/12/28 12:33:00;;;;;;;0.98;0.88;;;7.40;99.90;;;;;;5113458;28;20052;-85
2021/12/28 12:35:41;;;;;;;0.85;0.80;;;7.30;99.90;;;;;;5114247;28;20065;-84
2021/12/28 12:38:10;;;;;;;1.40;1.30;;;7.40;99.90;;;;;;5112835;28;20051;-84
2021/12/28 12:41:07;;;;;;;0.95;0.93;;;7.30;99.90;;;;;;5115438;28;20043;-86
2021/12/28 12:43:36;;;;;;;1.38;1.05;;;7.40;99.90;;;;;;5092421;28;20056;-84
2021/12/28 12:46:20;;;;;;;0.60;0.60;;;7.40;99.90;;;;;;5112530;28;20395;-84
2021/12/28 12:48:45;;;;;;;2.30;1.25;;;7.50;99.90;;;;;;5098968;28;20134;-84
2021/12/28 12:51:23;;;;;;;2.80;0.82;;;7.50;99.90;;;;;;5122696;28;20078;-84
2021/12/28 12:53:58;;;;;;;;;;;7.50;99.90;;;;;;5128232;28;20052;-83
2021/12/28 12:56:30;;;;;;;0.60;0.60;;;7.50;99.90;;;;;;5119713;28;20398;-84
2021/12/28 12:59:02;;;;;;;0.80;0.80;;;7.50;99.90;;;;;;5116430;28;20412;-82
2021/12/28 13:01:27;;;;;;;0.60;0.60;;;7.40;99.90;;;;;;5116850;28;20078;-83